sensor_id;sensor_type;location;lat;lon;timestamp;P1;durP1;ratioP1;P2;durP2;ratioP2
3293;SDS011;1659;51.470;6.770;2023-04-28T00:02:12;17.30;;;8.70;;
3293;SDS011;1659;51.470;6.770;2023-04-28T00:04:39;15.43;;;8.73;;
3293;SDS011;1659;51.470;6.770;2023-04-28T00:07:06;19.57;;;9.23;;
3293;SDS011;1659;51.470;6.770;2023-04-28T00:09:34;15.97;;;9.03;;
3293;SDS011;1659;51.470;6.770;2023-04-28T00:12:00;9.63;;;7.90;;
3293;SDS011;1659;51.470;6.770;2023-04-28T00:14:27;15.87;;;9.47;;
3293;SDS011;1659;51.470;6.770;2023-04-28T00:16:54;13.03;;;7.93;;
3293;SDS011;1659;51.470;6.770;2023-04-28T00:19:21;12.03;;;7.87;;
3293;SDS011;1659;51.470;6.770;2023-04-28T00:21:48;20.60;;;9.43;;
3293;SDS011;1659;51.470;6.770;2023-04-28T00:24:14;12.70;;;7.93;;
3293;SDS011;1659;51.470;6.770;2023-04-28T00:26:42;20.27;;;8.97;;
3293;SDS011;1659;51.470;6.770;2023-04-28T00:29:09;15.57;;;9.33;;
3293;SDS011;1659;51.470;6.770;2023-04-28T00:31:35;12.57;;;8.17;;
3293;SDS011;1659;51.470;6.770;2023-04-28T00:34:02;16.53;;;8.90;;
3293;SDS011;1659;51.470;6.770;2023-04-28T00:36:28;14.00;;;8.67;;
3293;SDS011;1659;51.470;6.770;2023-04-28T00:38:56;18.27;;;8.50;;
3293;SDS011;1659;51.470;6.770;2023-04-28T00:41:23;12.83;;;8.37;;
3293;SDS011;1659;51.470;6.770;2023-04-28T00:43:51;22.13;;;9.77;;
3293;SDS011;1659;51.470;6.770;2023-04-28T00:46:20;16.33;;;10.00;;
3293;SDS011;1659;51.470;6.770;2023-04-28T00:48:48;15.90;;;10.10;;
3293;SDS011;1659;51.470;6.770;2023-04-28T00:51:15;15.73;;;8.50;;
3293;SDS011;1659;51.470;6.770;2023-04-28T00:53:41;15.00;;;8.40;;
3293;SDS011;1659;51.470;6.770;2023-04-28T00:56:08;15.73;;;9.37;;
3293;SDS011;1659;51.470;6.770;2023-04-28T00:58:35;17.10;;;9.40;;
3293;SDS011;1659;51.470;6.770;2023-04-28T01:01:04;18.23;;;10.40;;
3293;SDS011;1659;51.470;6.770;2023-04-28T01:03:32;17.93;;;9.70;;
3293;SDS011;1659;51.470;6.770;2023-04-28T01:05:59;17.40;;;9.43;;
3293;SDS011;1659;51.470;6.770;2023-04-28T01:08:26;19.17;;;10.77;;
3293;SDS011;1659;51.470;6.770;2023-04-28T01:10:54;15.60;;;10.07;;
3293;SDS011;1659;51.470;6.770;2023-04-28T01:13:21;20.20;;;8.80;;
3293;SDS011;1659;51.470;6.770;2023-04-28T01:15:48;13.20;;;9.20;;
3293;SDS011;1659;51.470;6.770;2023-04-28T01:18:16;19.40;;;11.07;;
3293;SDS011;1659;51.470;6.770;2023-04-28T01:20:43;16.47;;;10.03;;
3293;SDS011;1659;51.470;6.770;2023-04-28T01:23:10;17.00;;;9.80;;
3293;SDS011;1659;51.470;6.770;2023-04-28T01:25:39;15.77;;;8.97;;
3293;SDS011;1659;51.470;6.770;2023-04-28T01:28:05;19.83;;;10.47;;
3293;SDS011;1659;51.470;6.770;2023-04-28T01:30:32;20.80;;;10.60;;
3293;SDS011;1659;51.470;6.770;2023-04-28T01:32:59;14.90;;;9.63;;
3293;SDS011;1659;51.470;6.770;2023-04-28T01:35:26;18.27;;;9.97;;
3293;SDS011;1659;51.470;6.770;2023-04-28T01:37:52;23.50;;;11.17;;
3293;SDS011;1659;51.470;6.770;2023-04-28T01:40:19;20.87;;;10.87;;
3293;SDS011;1659;51.470;6.770;2023-04-28T01:42:47;16.40;;;10.03;;
3293;SDS011;1659;51.470;6.770;2023-04-28T01:45:13;19.70;;;11.00;;
3293;SDS011;1659;51.470;6.770;2023-04-28T01:47:40;14.73;;;9.77;;
3293;SDS011;1659;51.470;6.770;2023-04-28T01:50:07;21.83;;;11.10;;
3293;SDS011;1659;51.470;6.770;2023-04-28T01:52:33;28.63;;;10.90;;
3293;SDS011;1659;51.470;6.770;2023-04-28T01:55:00;17.27;;;10.27;;
3293;SDS011;1659;51.470;6.770;2023-04-28T01:57:27;22.90;;;12.87;;
3293;SDS011;1659;51.470;6.770;2023-04-28T02:00:00;20.00;;;10.73;;
3293;SDS011;1659;51.470;6.770;2023-04-28T02:02:27;23.27;;;11.07;;
3293;SDS011;1659;51.470;6.770;2023-04-28T02:04:53;21.80;;;12.07;;
3293;SDS011;1659;51.470;6.770;2023-04-28T02:07:22;19.20;;;11.07;;
3293;SDS011;1659;51.470;6.770;2023-04-28T02:09:48;21.57;;;11.03;;
3293;SDS011;1659;51.470;6.770;2023-04-28T02:12:15;21.80;;;11.90;;
3293;SDS011;1659;51.470;6.770;2023-04-28T02:14:41;22.57;;;13.17;;
3293;SDS011;1659;51.470;6.770;2023-04-28T02:17:09;22.03;;;10.97;;
3293;SDS011;1659;51.470;6.770;2023-04-28T02:19:35;21.87;;;12.67;;
3293;SDS011;1659;51.470;6.770;2023-04-28T02:22:02;25.77;;;12.30;;
3293;SDS011;1659;51.470;6.770;2023-04-28T02:24:29;25.37;;;13.53;;
3293;SDS011;1659;51.470;6.770;2023-04-28T02:26:55;20.37;;;12.13;;
3293;SDS011;1659;51.470;6.770;2023-04-28T02:29:22;22.90;;;14.00;;
3293;SDS011;1659;51.470;6.770;2023-04-28T02:31:49;21.13;;;12.13;;
3293;SDS011;1659;51.470;6.770;2023-04-28T02:34:17;23.43;;;12.37;;
3293;SDS011;1659;51.470;6.770;2023-04-28T02:36:44;25.03;;;12.97;;
3293;SDS011;1659;51.470;6.770;2023-04-28T02:39:10;20.57;;;11.23;;
3293;SDS011;1659;51.470;6.770;2023-04-28T02:41:37;23.93;;;12.20;;
3293;SDS011;1659;51.470;6.770;2023-04-28T02:44:03;29.53;;;14.67;;
3293;SDS011;1659;51.470;6.770;2023-04-28T02:46:30;23.90;;;13.37;;
3293;SDS011;1659;51.470;6.770;2023-04-28T02:48:56;25.83;;;13.33;;
3293;SDS011;1659;51.470;6.770;2023-04-28T02:51:24;20.80;;;13.73;;
3293;SDS011;1659;51.470;6.770;2023-04-28T02:53:51;19.90;;;13.50;;
3293;SDS011;1659;51.470;6.770;2023-04-28T02:56:17;26.83;;;13.93;;
3293;SDS011;1659;51.470;6.770;2023-04-28T02:58:44;20.13;;;12.87;;
3293;SDS011;1659;51.470;6.770;2023-04-28T03:01:11;27.20;;;14.80;;
3293;SDS011;1659;51.470;6.770;2023-04-28T03:03:37;29.33;;;14.80;;
3293;SDS011;1659;51.470;6.770;2023-04-28T03:06:04;31.17;;;15.07;;
3293;SDS011;1659;51.470;6.770;2023-04-28T03:08:32;22.70;;;13.90;;
3293;SDS011;1659;51.470;6.770;2023-04-28T03:10:59;33.37;;;15.17;;
3293;SDS011;1659;51.470;6.770;2023-04-28T03:13:25;29.47;;;16.10;;
3293;SDS011;1659;51.470;6.770;2023-04-28T03:15:53;28.90;;;15.67;;
3293;SDS011;1659;51.470;6.770;2023-04-28T03:18:20;36.30;;;16.57;;
3293;SDS011;1659;51.470;6.770;2023-04-28T03:20:47;25.67;;;14.60;;
3293;SDS011;1659;51.470;6.770;2023-04-28T03:23:13;31.33;;;16.63;;
3293;SDS011;1659;51.470;6.770;2023-04-28T03:25:41;31.20;;;16.23;;
3293;SDS011;1659;51.470;6.770;2023-04-28T03:28:08;24.03;;;13.73;;
3293;SDS011;1659;51.470;6.770;2023-04-28T03:30:35;26.07;;;13.50;;
3293;SDS011;1659;51.470;6.770;2023-04-28T03:33:02;23.37;;;13.67;;
3293;SDS011;1659;51.470;6.770;2023-04-28T03:35:29;28.93;;;14.30;;
3293;SDS011;1659;51.470;6.770;2023-04-28T03:37:55;28.50;;;13.83;;
3293;SDS011;1659;51.470;6.770;2023-04-28T03:40:22;27.67;;;13.43;;
3293;SDS011;1659;51.470;6.770;2023-04-28T03:42:50;32.33;;;16.57;;
3293;SDS011;1659;51.470;6.770;2023-04-28T03:45:16;25.47;;;14.47;;
3293;SDS011;1659;51.470;6.770;2023-04-28T03:47:43;24.83;;;14.00;;
3293;SDS011;1659;51.470;6.770;2023-04-28T03:50:09;26.90;;;14.43;;
3293;SDS011;1659;51.470;6.770;2023-04-28T03:52:36;34.43;;;16.00;;
3293;SDS011;1659;51.470;6.770;2023-04-28T03:55:03;27.13;;;13.93;;
3293;SDS011;1659;51.470;6.770;2023-04-28T03:57:29;25.00;;;12.80;;
3293;SDS011;1659;51.470;6.770;2023-04-28T03:59:57;23.50;;;12.70;;
3293;SDS011;1659;51.470;6.770;2023-04-28T04:02:24;23.20;;;13.43;;
3293;SDS011;1659;51.470;6.770;2023-04-28T04:04:50;40.27;;;14.60;;
3293;SDS011;1659;51.470;6.770;2023-04-28T04:07:17;23.83;;;14.00;;
3293;SDS011;1659;51.470;6.770;2023-04-28T04:09:43;25.73;;;14.03;;
3293;SDS011;1659;51.470;6.770;2023-04-28T04:12:10;32.93;;;16.67;;
3293;SDS011;1659;51.470;6.770;2023-04-28T04:14:36;29.70;;;15.13;;
3293;SDS011;1659;51.470;6.770;2023-04-28T04:17:04;26.17;;;13.93;;
3293;SDS011;1659;51.470;6.770;2023-04-28T04:19:31;26.73;;;15.00;;
3293;SDS011;1659;51.470;6.770;2023-04-28T04:21:58;28.43;;;15.47;;
3293;SDS011;1659;51.470;6.770;2023-04-28T04:24:24;28.43;;;13.70;;
3293;SDS011;1659;51.470;6.770;2023-04-28T04:26:51;30.57;;;13.83;;
3293;SDS011;1659;51.470;6.770;2023-04-28T04:29:17;28.23;;;14.33;;
3293;SDS011;1659;51.470;6.770;2023-04-28T04:31:44;23.53;;;12.17;;
3293;SDS011;1659;51.470;6.770;2023-04-28T04:34:12;18.83;;;12.80;;
3293;SDS011;1659;51.470;6.770;2023-04-28T04:36:38;21.60;;;11.97;;
3293;SDS011;1659;51.470;6.770;2023-04-28T04:39:05;26.53;;;13.60;;
3293;SDS011;1659;51.470;6.770;2023-04-28T04:41:32;23.60;;;13.30;;
3293;SDS011;1659;51.470;6.770;2023-04-28T04:43:58;25.60;;;13.43;;
3293;SDS011;1659;51.470;6.770;2023-04-28T04:46:25;21.17;;;13.17;;
3293;SDS011;1659;51.470;6.770;2023-04-28T04:48:51;23.20;;;12.87;;
3293;SDS011;1659;51.470;6.770;2023-04-28T04:51:19;24.07;;;12.13;;
3293;SDS011;1659;51.470;6.770;2023-04-28T04:53:46;24.43;;;12.70;;
3293;SDS011;1659;51.470;6.770;2023-04-28T04:56:12;21.83;;;13.17;;
3293;SDS011;1659;51.470;6.770;2023-04-28T04:58:41;26.27;;;13.27;;
3293;SDS011;1659;51.470;6.770;2023-04-28T05:01:08;22.40;;;13.03;;
3293;SDS011;1659;51.470;6.770;2023-04-28T05:03:35;23.57;;;12.40;;
3293;SDS011;1659;51.470;6.770;2023-04-28T05:06:01;26.20;;;12.80;;
3293;SDS011;1659;51.470;6.770;2023-04-28T05:08:29;18.50;;;11.50;;
3293;SDS011;1659;51.470;6.770;2023-04-28T05:10:56;21.83;;;12.63;;
3293;SDS011;1659;51.470;6.770;2023-04-28T05:13:22;17.30;;;11.50;;
3293;SDS011;1659;51.470;6.770;2023-04-28T05:15:49;21.63;;;12.00;;
3293;SDS011;1659;51.470;6.770;2023-04-28T05:18:15;24.03;;;13.10;;
3293;SDS011;1659;51.470;6.770;2023-04-28T05:20:42;20.20;;;12.30;;
3293;SDS011;1659;51.470;6.770;2023-04-28T05:23:08;16.60;;;11.40;;
3293;SDS011;1659;51.470;6.770;2023-04-28T05:25:36;21.07;;;12.70;;
3293;SDS011;1659;51.470;6.770;2023-04-28T05:28:03;19.03;;;12.23;;
3293;SDS011;1659;51.470;6.770;2023-04-28T05:30:32;23.03;;;13.47;;
3293;SDS011;1659;51.470;6.770;2023-04-28T05:32:59;21.27;;;13.07;;
3293;SDS011;1659;51.470;6.770;2023-04-28T05:35:26;17.70;;;12.83;;
3293;SDS011;1659;51.470;6.770;2023-04-28T05:37:52;19.57;;;12.93;;
3293;SDS011;1659;51.470;6.770;2023-04-28T05:40:19;26.10;;;12.90;;
3293;SDS011;1659;51.470;6.770;2023-04-28T05:42:47;24.10;;;13.10;;
3293;SDS011;1659;51.470;6.770;2023-04-28T05:45:14;26.70;;;13.20;;
3293;SDS011;1659;51.470;6.770;2023-04-28T05:47:40;21.53;;;12.30;;
3293;SDS011;1659;51.470;6.770;2023-04-28T05:50:07;21.70;;;11.80;;
3293;SDS011;1659;51.470;6.770;2023-04-28T05:52:34;23.00;;;12.43;;
3293;SDS011;1659;51.470;6.770;2023-04-28T05:55:01;19.80;;;11.13;;
3293;SDS011;1659;51.470;6.770;2023-04-28T05:57:27;24.17;;;12.33;;
3293;SDS011;1659;51.470;6.770;2023-04-28T05:59:55;22.93;;;12.70;;
3293;SDS011;1659;51.470;6.770;2023-04-28T06:02:22;20.97;;;12.60;;
3293;SDS011;1659;51.470;6.770;2023-04-28T06:04:48;26.67;;;12.63;;
3293;SDS011;1659;51.470;6.770;2023-04-28T06:07:15;18.93;;;11.67;;
3293;SDS011;1659;51.470;6.770;2023-04-28T06:09:41;19.40;;;12.40;;
3293;SDS011;1659;51.470;6.770;2023-04-28T06:12:08;19.33;;;12.33;;
3293;SDS011;1659;51.470;6.770;2023-04-28T06:14:35;21.70;;;12.67;;
3293;SDS011;1659;51.470;6.770;2023-04-28T06:17:03;18.83;;;11.90;;
3293;SDS011;1659;51.470;6.770;2023-04-28T06:19:30;22.27;;;12.20;;
3293;SDS011;1659;51.470;6.770;2023-04-28T06:21:56;18.40;;;11.13;;
3293;SDS011;1659;51.470;6.770;2023-04-28T06:24:23;19.90;;;11.80;;
3293;SDS011;1659;51.470;6.770;2023-04-28T06:26:49;19.60;;;12.07;;
3293;SDS011;1659;51.470;6.770;2023-04-28T06:29:16;21.80;;;13.90;;
3293;SDS011;1659;51.470;6.770;2023-04-28T06:31:44;20.47;;;11.90;;
3293;SDS011;1659;51.470;6.770;2023-04-28T06:34:12;22.97;;;13.47;;
3293;SDS011;1659;51.470;6.770;2023-04-28T06:36:39;21.00;;;12.77;;
3293;SDS011;1659;51.470;6.770;2023-04-28T06:39:05;21.87;;;13.30;;
3293;SDS011;1659;51.470;6.770;2023-04-28T06:41:32;22.83;;;13.00;;
3293;SDS011;1659;51.470;6.770;2023-04-28T06:43:58;21.30;;;12.63;;
3293;SDS011;1659;51.470;6.770;2023-04-28T06:46:25;22.70;;;13.50;;
3293;SDS011;1659;51.470;6.770;2023-04-28T06:48:52;24.27;;;15.13;;
3293;SDS011;1659;51.470;6.770;2023-04-28T06:51:20;22.07;;;11.90;;
3293;SDS011;1659;51.470;6.770;2023-04-28T06:53:46;22.67;;;13.53;;
3293;SDS011;1659;51.470;6.770;2023-04-28T06:56:15;27.77;;;14.77;;
3293;SDS011;1659;51.470;6.770;2023-04-28T06:58:41;22.73;;;13.30;;
3293;SDS011;1659;51.470;6.770;2023-04-28T07:01:08;21.70;;;13.43;;
3293;SDS011;1659;51.470;6.770;2023-04-28T07:03:34;25.60;;;14.07;;
3293;SDS011;1659;51.470;6.770;2023-04-28T07:06:01;26.17;;;14.43;;
3293;SDS011;1659;51.470;6.770;2023-04-28T07:08:30;27.33;;;14.77;;
3293;SDS011;1659;51.470;6.770;2023-04-28T07:10:56;28.33;;;14.90;;
3293;SDS011;1659;51.470;6.770;2023-04-28T07:13:23;27.83;;;16.10;;
3293;SDS011;1659;51.470;6.770;2023-04-28T07:15:49;25.77;;;15.17;;
3293;SDS011;1659;51.470;6.770;2023-04-28T07:18:16;20.47;;;12.50;;
3293;SDS011;1659;51.470;6.770;2023-04-28T07:20:42;17.80;;;10.23;;
3293;SDS011;1659;51.470;6.770;2023-04-28T07:23:09;18.03;;;12.07;;
3293;SDS011;1659;51.470;6.770;2023-04-28T07:25:37;19.63;;;10.90;;
3293;SDS011;1659;51.470;6.770;2023-04-28T07:28:04;15.13;;;9.63;;
3293;SDS011;1659;51.470;6.770;2023-04-28T07:30:31;14.60;;;10.27;;
3293;SDS011;1659;51.470;6.770;2023-04-28T07:32:59;16.90;;;10.13;;
3293;SDS011;1659;51.470;6.770;2023-04-28T07:35:25;14.17;;;9.63;;
3293;SDS011;1659;51.470;6.770;2023-04-28T07:37:52;14.70;;;9.27;;
3293;SDS011;1659;51.470;6.770;2023-04-28T07:40:19;10.93;;;8.10;;
3293;SDS011;1659;51.470;6.770;2023-04-28T07:42:47;11.30;;;7.67;;
3293;SDS011;1659;51.470;6.770;2023-04-28T07:45:13;11.60;;;8.43;;
3293;SDS011;1659;51.470;6.770;2023-04-28T07:47:40;16.60;;;8.37;;
3293;SDS011;1659;51.470;6.770;2023-04-28T07:50:07;11.70;;;7.80;;
3293;SDS011;1659;51.470;6.770;2023-04-28T07:52:36;13.20;;;8.37;;
3293;SDS011;1659;51.470;6.770;2023-04-28T07:55:03;11.90;;;8.17;;
3293;SDS011;1659;51.470;6.770;2023-04-28T07:57:31;10.80;;;7.27;;
3293;SDS011;1659;51.470;6.770;2023-04-28T07:59:59;13.83;;;8.53;;
3293;SDS011;1659;51.470;6.770;2023-04-28T08:02:25;11.23;;;7.60;;
3293;SDS011;1659;51.470;6.770;2023-04-28T08:04:52;12.60;;;8.50;;
3293;SDS011;1659;51.470;6.770;2023-04-28T08:07:18;17.77;;;9.70;;
3293;SDS011;1659;51.470;6.770;2023-04-28T08:09:45;16.03;;;8.40;;
3293;SDS011;1659;51.470;6.770;2023-04-28T08:12:12;11.77;;;7.97;;
3293;SDS011;1659;51.470;6.770;2023-04-28T08:14:38;15.80;;;9.40;;
3293;SDS011;1659;51.470;6.770;2023-04-28T08:17:06;13.50;;;8.73;;
3293;SDS011;1659;51.470;6.770;2023-04-28T08:19:33;9.70;;;7.93;;
3293;SDS011;1659;51.470;6.770;2023-04-28T08:22:00;14.13;;;8.33;;
3293;SDS011;1659;51.470;6.770;2023-04-28T08:24:29;12.40;;;8.13;;
3293;SDS011;1659;51.470;6.770;2023-04-28T08:26:59;13.17;;;8.30;;
3293;SDS011;1659;51.470;6.770;2023-04-28T08:29:27;11.40;;;8.30;;
3293;SDS011;1659;51.470;6.770;2023-04-28T08:31:53;14.10;;;9.23;;
3293;SDS011;1659;51.470;6.770;2023-04-28T08:34:21;14.37;;;9.10;;
3293;SDS011;1659;51.470;6.770;2023-04-28T08:36:48;12.07;;;8.93;;
3293;SDS011;1659;51.470;6.770;2023-04-28T08:39:14;13.63;;;8.23;;
3293;SDS011;1659;51.470;6.770;2023-04-28T08:41:41;13.70;;;8.80;;
3293;SDS011;1659;51.470;6.770;2023-04-28T08:44:07;12.57;;;8.27;;
3293;SDS011;1659;51.470;6.770;2023-04-28T08:46:35;11.53;;;7.40;;
3293;SDS011;1659;51.470;6.770;2023-04-28T08:49:06;17.30;;;8.27;;
3293;SDS011;1659;51.470;6.770;2023-04-28T08:51:43;14.40;;;8.97;;
3293;SDS011;1659;51.470;6.770;2023-04-28T08:54:11;12.10;;;7.80;;
3293;SDS011;1659;51.470;6.770;2023-04-28T08:56:40;12.30;;;8.17;;
3293;SDS011;1659;51.470;6.770;2023-04-28T08:59:09;15.77;;;9.57;;
3293;SDS011;1659;51.470;6.770;2023-04-28T09:01:36;16.23;;;9.47;;
3293;SDS011;1659;51.470;6.770;2023-04-28T09:04:04;12.20;;;9.17;;
3293;SDS011;1659;51.470;6.770;2023-04-28T09:06:31;13.90;;;8.23;;
3293;SDS011;1659;51.470;6.770;2023-04-28T09:11:51;15.20;;;9.00;;
3293;SDS011;1659;51.470;6.770;2023-04-28T09:14:19;12.00;;;8.77;;
3293;SDS011;1659;51.470;6.770;2023-04-28T09:16:46;12.70;;;8.07;;
3293;SDS011;1659;51.470;6.770;2023-04-28T09:19:12;17.43;;;8.87;;
3293;SDS011;1659;51.470;6.770;2023-04-28T09:21:49;17.93;;;10.17;;
3293;SDS011;1659;51.470;6.770;2023-04-28T09:24:32;15.07;;;10.63;;
3293;SDS011;1659;51.470;6.770;2023-04-28T09:27:01;15.70;;;9.90;;
3293;SDS011;1659;51.470;6.770;2023-04-28T09:29:28;15.57;;;9.40;;
3293;SDS011;1659;51.470;6.770;2023-04-28T09:32:11;18.07;;;10.80;;
3293;SDS011;1659;51.470;6.770;2023-04-28T09:34:41;22.30;;;11.60;;
3293;SDS011;1659;51.470;6.770;2023-04-28T09:37:13;17.73;;;10.80;;
3293;SDS011;1659;51.470;6.770;2023-04-28T09:39:42;18.17;;;10.20;;
3293;SDS011;1659;51.470;6.770;2023-04-28T09:42:09;17.53;;;10.83;;
3293;SDS011;1659;51.470;6.770;2023-04-28T09:44:35;19.60;;;9.60;;
3293;SDS011;1659;51.470;6.770;2023-04-28T09:47:04;22.93;;;11.50;;
3293;SDS011;1659;51.470;6.770;2023-04-28T09:49:52;24.13;;;10.40;;
3293;SDS011;1659;51.470;6.770;2023-04-28T09:52:20;16.33;;;10.17;;
3293;SDS011;1659;51.470;6.770;2023-04-28T09:54:48;22.67;;;10.23;;
3293;SDS011;1659;51.470;6.770;2023-04-28T09:57:16;23.07;;;11.17;;
3293;SDS011;1659;51.470;6.770;2023-04-28T10:02:12;17.07;;;11.77;;
3293;SDS011;1659;51.470;6.770;2023-04-28T10:04:40;17.27;;;10.63;;
3293;SDS011;1659;51.470;6.770;2023-04-28T10:07:08;20.43;;;11.17;;
3293;SDS011;1659;51.470;6.770;2023-04-28T10:09:35;21.37;;;12.20;;
3293;SDS011;1659;51.470;6.770;2023-04-28T10:12:04;18.67;;;11.57;;
3293;SDS011;1659;51.470;6.770;2023-04-28T10:14:31;29.93;;;13.30;;
3293;SDS011;1659;51.470;6.770;2023-04-28T10:16:58;22.27;;;13.30;;
3293;SDS011;1659;51.470;6.770;2023-04-28T10:19:27;25.67;;;13.77;;
3293;SDS011;1659;51.470;6.770;2023-04-28T10:21:54;18.50;;;12.40;;
3293;SDS011;1659;51.470;6.770;2023-04-28T10:24:31;20.00;;;13.50;;
3293;SDS011;1659;51.470;6.770;2023-04-28T10:27:06;27.10;;;13.53;;
3293;SDS011;1659;51.470;6.770;2023-04-28T10:29:34;24.73;;;13.67;;
3293;SDS011;1659;51.470;6.770;2023-04-28T10:32:14;21.10;;;13.60;;
3293;SDS011;1659;51.470;6.770;2023-04-28T10:34:42;26.87;;;15.30;;
3293;SDS011;1659;51.470;6.770;2023-04-28T10:37:08;45.70;;;19.90;;
3293;SDS011;1659;51.470;6.770;2023-04-28T10:39:35;38.03;;;19.37;;
3293;SDS011;1659;51.470;6.770;2023-04-28T10:42:02;35.20;;;19.73;;
3293;SDS011;1659;51.470;6.770;2023-04-28T10:47:14;28.63;;;17.33;;
3293;SDS011;1659;51.470;6.770;2023-04-28T10:52:48;26.83;;;16.43;;
3293;SDS011;1659;51.470;6.770;2023-04-28T10:55:25;26.10;;;15.47;;
3293;SDS011;1659;51.470;6.770;2023-04-28T11:00:53;25.97;;;15.37;;
3293;SDS011;1659;51.470;6.770;2023-04-28T11:03:40;31.13;;;16.23;;
3293;SDS011;1659;51.470;6.770;2023-04-28T11:06:18;26.47;;;15.23;;
3293;SDS011;1659;51.470;6.770;2023-04-28T11:08:46;25.53;;;15.97;;
3293;SDS011;1659;51.470;6.770;2023-04-28T11:11:14;25.83;;;16.07;;
3293;SDS011;1659;51.470;6.770;2023-04-28T11:13:41;27.47;;;17.80;;
3293;SDS011;1659;51.470;6.770;2023-04-28T11:16:13;31.83;;;17.10;;
3293;SDS011;1659;51.470;6.770;2023-04-28T11:18:47;31.37;;;19.03;;
3293;SDS011;1659;51.470;6.770;2023-04-28T11:21:16;26.73;;;17.20;;
3293;SDS011;1659;51.470;6.770;2023-04-28T11:23:42;33.47;;;16.57;;
3293;SDS011;1659;51.470;6.770;2023-04-28T11:26:09;29.07;;;17.70;;
3293;SDS011;1659;51.470;6.770;2023-04-28T11:28:42;27.60;;;16.30;;
3293;SDS011;1659;51.470;6.770;2023-04-28T11:31:13;28.63;;;17.43;;
3293;SDS011;1659;51.470;6.770;2023-04-28T11:33:43;24.33;;;15.87;;
3293;SDS011;1659;51.470;6.770;2023-04-28T11:36:21;23.83;;;15.10;;
3293;SDS011;1659;51.470;6.770;2023-04-28T11:38:48;26.17;;;15.43;;
3293;SDS011;1659;51.470;6.770;2023-04-28T11:41:15;28.87;;;16.43;;
3293;SDS011;1659;51.470;6.770;2023-04-28T11:43:42;24.03;;;16.00;;
3293;SDS011;1659;51.470;6.770;2023-04-28T11:46:08;27.17;;;16.10;;
3293;SDS011;1659;51.470;6.770;2023-04-28T11:48:36;22.63;;;15.17;;
3293;SDS011;1659;51.470;6.770;2023-04-28T11:51:03;30.33;;;16.90;;
3293;SDS011;1659;51.470;6.770;2023-04-28T11:53:39;21.77;;;14.27;;
3293;SDS011;1659;51.470;6.770;2023-04-28T11:56:06;22.60;;;13.67;;
3293;SDS011;1659;51.470;6.770;2023-04-28T11:58:33;21.30;;;13.37;;
3293;SDS011;1659;51.470;6.770;2023-04-28T12:01:06;23.37;;;14.60;;
3293;SDS011;1659;51.470;6.770;2023-04-28T12:03:42;26.60;;;15.50;;
3293;SDS011;1659;51.470;6.770;2023-04-28T12:06:09;31.93;;;16.73;;
3293;SDS011;1659;51.470;6.770;2023-04-28T12:08:35;26.30;;;15.27;;
3293;SDS011;1659;51.470;6.770;2023-04-28T12:11:08;25.57;;;15.63;;
3293;SDS011;1659;51.470;6.770;2023-04-28T12:13:35;24.63;;;15.47;;
3293;SDS011;1659;51.470;6.770;2023-04-28T12:16:02;31.70;;;17.80;;
3293;SDS011;1659;51.470;6.770;2023-04-28T12:18:30;26.67;;;16.47;;
3293;SDS011;1659;51.470;6.770;2023-04-28T12:20:58;29.10;;;16.17;;
3293;SDS011;1659;51.470;6.770;2023-04-28T12:23:29;29.43;;;16.63;;
3293;SDS011;1659;51.470;6.770;2023-04-28T12:25:56;24.57;;;15.43;;
3293;SDS011;1659;51.470;6.770;2023-04-28T12:28:23;27.27;;;16.33;;
3293;SDS011;1659;51.470;6.770;2023-04-28T12:31:02;22.40;;;13.97;;
3293;SDS011;1659;51.470;6.770;2023-04-28T12:33:30;21.37;;;14.30;;
3293;SDS011;1659;51.470;6.770;2023-04-28T12:35:59;25.90;;;15.13;;
3293;SDS011;1659;51.470;6.770;2023-04-28T12:38:26;30.90;;;14.50;;
3293;SDS011;1659;51.470;6.770;2023-04-28T12:40:53;20.40;;;12.73;;
3293;SDS011;1659;51.470;6.770;2023-04-28T12:43:20;17.87;;;12.17;;
3293;SDS011;1659;51.470;6.770;2023-04-28T12:45:48;20.63;;;12.33;;
3293;SDS011;1659;51.470;6.770;2023-04-28T12:48:14;17.90;;;11.47;;
3293;SDS011;1659;51.470;6.770;2023-04-28T12:50:41;15.87;;;10.13;;
3293;SDS011;1659;51.470;6.770;2023-04-28T12:53:09;15.27;;;9.43;;
3293;SDS011;1659;51.470;6.770;2023-04-28T12:55:35;10.93;;;8.50;;
3293;SDS011;1659;51.470;6.770;2023-04-28T12:58:04;12.50;;;9.40;;
3293;SDS011;1659;51.470;6.770;2023-04-28T13:00:30;14.73;;;8.97;;
3293;SDS011;1659;51.470;6.770;2023-04-28T13:02:57;11.47;;;7.60;;
3293;SDS011;1659;51.470;6.770;2023-04-28T13:05:24;12.73;;;8.23;;
3293;SDS011;1659;51.470;6.770;2023-04-28T13:07:50;10.10;;;7.60;;
3293;SDS011;1659;51.470;6.770;2023-04-28T13:10:19;13.20;;;8.20;;
3293;SDS011;1659;51.470;6.770;2023-04-28T13:12:47;9.90;;;7.77;;
3293;SDS011;1659;51.470;6.770;2023-04-28T13:15:14;13.80;;;8.90;;
3293;SDS011;1659;51.470;6.770;2023-04-28T13:17:41;9.30;;;7.77;;
3293;SDS011;1659;51.470;6.770;2023-04-28T13:20:10;11.70;;;8.40;;
3293;SDS011;1659;51.470;6.770;2023-04-28T13:22:37;10.83;;;9.37;;
3293;SDS011;1659;51.470;6.770;2023-04-28T13:25:04;12.10;;;9.03;;
3293;SDS011;1659;51.470;6.770;2023-04-28T13:27:32;16.43;;;9.27;;
3293;SDS011;1659;51.470;6.770;2023-04-28T13:30:00;9.87;;;7.90;;
3293;SDS011;1659;51.470;6.770;2023-04-28T13:32:27;11.03;;;8.63;;
3293;SDS011;1659;51.470;6.770;2023-04-28T13:34:54;11.60;;;8.50;;
3293;SDS011;1659;51.470;6.770;2023-04-28T13:37:20;12.03;;;8.60;;
3293;SDS011;1659;51.470;6.770;2023-04-28T13:39:47;12.10;;;9.13;;
3293;SDS011;1659;51.470;6.770;2023-04-28T13:42:14;10.07;;;8.40;;
3293;SDS011;1659;51.470;6.770;2023-04-28T13:44:41;11.37;;;8.73;;
3293;SDS011;1659;51.470;6.770;2023-04-28T13:47:08;11.90;;;8.30;;
3293;SDS011;1659;51.470;6.770;2023-04-28T13:49:35;10.60;;;8.37;;
3293;SDS011;1659;51.470;6.770;2023-04-28T13:52:03;11.00;;;9.37;;
3293;SDS011;1659;51.470;6.770;2023-04-28T13:54:30;13.20;;;9.13;;
3293;SDS011;1659;51.470;6.770;2023-04-28T13:56:57;11.40;;;9.20;;
3293;SDS011;1659;51.470;6.770;2023-04-28T13:59:23;10.37;;;7.97;;
3293;SDS011;1659;51.470;6.770;2023-04-28T14:01:51;9.10;;;7.23;;
3293;SDS011;1659;51.470;6.770;2023-04-28T14:04:18;10.57;;;8.37;;
3293;SDS011;1659;51.470;6.770;2023-04-28T14:06:45;10.40;;;8.43;;
3293;SDS011;1659;51.470;6.770;2023-04-28T14:09:11;13.70;;;9.40;;
3293;SDS011;1659;51.470;6.770;2023-04-28T14:11:38;11.97;;;8.43;;
3293;SDS011;1659;51.470;6.770;2023-04-28T14:14:04;11.57;;;8.57;;
3293;SDS011;1659;51.470;6.770;2023-04-28T14:16:31;12.53;;;9.10;;
3293;SDS011;1659;51.470;6.770;2023-04-28T14:18:59;11.87;;;8.90;;
3293;SDS011;1659;51.470;6.770;2023-04-28T14:21:25;12.87;;;8.40;;
3293;SDS011;1659;51.470;6.770;2023-04-28T14:23:52;10.83;;;8.07;;
3293;SDS011;1659;51.470;6.770;2023-04-28T14:26:18;11.50;;;8.20;;
3293;SDS011;1659;51.470;6.770;2023-04-28T14:28:48;10.40;;;7.83;;
3293;SDS011;1659;51.470;6.770;2023-04-28T14:31:14;12.27;;;8.30;;
3293;SDS011;1659;51.470;6.770;2023-04-28T14:33:42;13.47;;;8.80;;
3293;SDS011;1659;51.470;6.770;2023-04-28T14:36:10;11.60;;;7.77;;
3293;SDS011;1659;51.470;6.770;2023-04-28T14:38:36;9.33;;;7.53;;
3293;SDS011;1659;51.470;6.770;2023-04-28T14:41:03;11.03;;;8.10;;
3293;SDS011;1659;51.470;6.770;2023-04-28T14:43:29;8.93;;;8.00;;
3293;SDS011;1659;51.470;6.770;2023-04-28T14:45:56;8.90;;;7.67;;
3293;SDS011;1659;51.470;6.770;2023-04-28T14:48:22;8.83;;;7.67;;
3293;SDS011;1659;51.470;6.770;2023-04-28T14:50:49;10.07;;;7.10;;
3293;SDS011;1659;51.470;6.770;2023-04-28T14:53:17;14.50;;;8.27;;
3293;SDS011;1659;51.470;6.770;2023-04-28T14:55:44;8.40;;;7.40;;
3293;SDS011;1659;51.470;6.770;2023-04-28T14:58:10;7.73;;;6.17;;
3293;SDS011;1659;51.470;6.770;2023-04-28T15:00:37;6.20;;;5.60;;
3293;SDS011;1659;51.470;6.770;2023-04-28T15:03:04;7.20;;;5.27;;
3293;SDS011;1659;51.470;6.770;2023-04-28T15:05:30;6.67;;;5.97;;
3293;SDS011;1659;51.470;6.770;2023-04-28T15:07:57;8.23;;;6.27;;
3293;SDS011;1659;51.470;6.770;2023-04-28T15:10:25;10.90;;;6.23;;